Time;durP1;ratioP1;P1;durP2;ratioP2;P2;SDS_P1;SDS_P2;PMS_P1;PMS_P2;Temp;Humidity;BMP_temperature;BMP_pressure;BME280_temperature;BME280_humidity;BME280_pressure;Samples;Min_cycle;Max_cycle;Signal;HPM_P1;HPM_P2
2021/05/01 00:00:27;;;;;;;;;;;22.80;41.80;;;;;;1573353;74;814;-68
2021/05/01 00:02:29;;;;;;;;;;;22.80;41.50;;;;;;1570977;74;960;-68
2021/05/01 00:04:32;;;;;;;;;;;22.80;41.60;;;;;;1570251;74;714;-68
2021/05/01 00:06:34;;;;;;;;;;;22.70;41.30;;;;;;1579841;74;749;-68
2021/05/01 00:08:35;;;;;;;;;;;22.80;41.70;;;;;;1571333;74;1160;-68
2021/05/01 00:10:37;;;;;;;;;;;22.70;41.70;;;;;;1577243;74;1966;-68
2021/05/01 00:12:39;;;;;;;;;;;22.80;41.70;;;;;;1565356;74;672;-68
2021/05/01 00:14:41;;;;;;;;;;;22.70;41.60;;;;;;1564984;74;775;-69
2021/05/01 00:16:46;;;;;;;;;;;22.80;41.50;;;;;;1568287;74;797;-69
2021/05/01 00:18:48;;;;;;;;;;;22.80;41.40;;;;;;1571885;74;907;-69
2021/05/01 00:20:49;;;;;;;;;;;22.90;41.60;;;;;;1569181;74;724;-69
2021/05/01 00:22:51;;;;;;;;;;;22.80;41.40;;;;;;1580058;74;766;-71
2021/05/01 00:24:53;;;;;;;;;;;22.80;41.30;;;;;;1563718;74;812;-69
2021/05/01 00:26:55;;;;;;;;;;;22.80;41.10;;;;;;1567793;74;1149;-67
2021/05/01 00:28:57;;;;;;;;;;;22.90;41.30;;;;;;1553200;74;733;-70
2021/05/01 00:30:59;;;;;;;;;;;22.80;41.10;;;;;;1560637;74;1929;-69
2021/05/01 00:33:01;;;;;;;;;;;22.90;41.20;;;;;;1567897;74;829;-69
2021/05/01 00:35:03;;;;;;;;;;;22.90;41.20;;;;;;1567319;74;794;-68
2021/05/01 00:37:05;;;;;;;;;;;23.00;41.20;;;;;;1572301;74;1134;-69
2021/05/01 00:39:07;;;;;;;;;;;22.90;41.00;;;;;;1581133;74;731;-70
2021/05/01 00:41:09;;;;;;;;;;;22.90;41.10;;;;;;1577387;74;847;-69
2021/05/01 00:43:11;;;;;;;;;;;22.90;41.20;;;;;;1562454;74;785;-69
2021/05/01 00:45:12;;;;;;;;;;;22.80;41.10;;;;;;1570793;74;729;-69
2021/05/01 00:47:14;;;;;;;;;;;22.80;41.00;;;;;;1570423;74;1140;-69
2021/05/01 00:49:16;;;;;;;;;;;22.80;41.10;;;;;;1567919;74;803;-69
2021/05/01 00:51:18;;;;;;;;;;;22.80;41.10;;;;;;1570297;73;1953;-69
2021/05/01 00:53:20;;;;;;;;;;;22.80;41.00;;;;;;1576393;74;935;-69
2021/05/01 00:55:22;;;;;;;;;;;22.70;41.10;;;;;;1569969;74;769;-69
2021/05/01 00:57:24;;;;;;;;;;;22.80;41.00;;;;;;1573152;74;1173;-69
2021/05/01 00:59:25;;;;;;;;;;;22.80;41.20;;;;;;1553181;74;787;-70
2021/05/01 01:01:28;;;;;;;;;;;22.70;41.20;;;;;;1576676;74;809;-69
2021/05/01 01:03:32;;;;;;;;;;;22.60;41.30;;;;;;1566338;74;947;-68
2021/05/01 01:05:33;;;;;;;;;;;22.60;41.40;;;;;;1565029;74;1738;-72
2021/05/01 01:07:35;;;;;;;;;;;22.80;41.30;;;;;;1567188;74;1145;-70
2021/05/01 01:09:37;;;;;;;;;;;22.80;41.00;;;;;;1570087;74;799;-69
2021/05/01 01:11:39;;;;;;;;;;;22.80;40.90;;;;;;1567153;74;1934;-68
2021/05/01 01:13:41;;;;;;;;;;;22.90;40.80;;;;;;1570006;74;786;-68
2021/05/01 01:15:43;;;;;;;;;;;22.80;40.90;;;;;;1566038;74;770;-68
2021/05/01 01:17:45;;;;;;;;;;;22.90;40.90;;;;;;1574965;74;1192;-69
2021/05/01 01:19:47;;;;;;;;;;;22.90;41.00;;;;;;1568606;74;821;-68
2021/05/01 01:21:49;;;;;;;;;;;22.80;41.00;;;;;;1580904;74;766;-68
2021/05/01 01:23:51;;;;;;;;;;;22.80;40.90;;;;;;1561791;74;800;-68
2021/05/01 01:25:53;;;;;;;;;;;22.70;41.00;;;;;;1559936;74;786;-68
2021/05/01 01:27:55;;;;;;;;;;;22.70;41.00;;;;;;1565482;74;1167;-69
2021/05/01 01:29:57;;;;;;;;;;;22.70;41.20;;;;;;1563411;74;791;-69
2021/05/01 01:31:59;;;;;;;;;;;22.80;41.20;;;;;;1567280;74;1955;-70
2021/05/01 01:34:01;;;;;;;;;;;22.70;41.20;;;;;;1575720;74;762;-68
2021/05/01 01:36:04;;;;;;;;;;;22.80;41.00;;;;;;1570089;74;715;-68
2021/05/01 01:38:06;;;;;;;;;;;22.70;41.10;;;;;;1572047;74;1172;-68
2021/05/01 01:40:09;;;;;;;;;;;22.80;41.00;;;;;;1557739;74;777;-68
2021/05/01 01:42:11;;;;;;;;;;;22.80;41.00;;;;;;1561812;74;742;-67
2021/05/01 01:44:13;;;;;;;;;;;22.70;41.00;;;;;;1558802;74;876;-68
2021/05/01 01:46:14;;;;;;;;;;;22.70;40.90;;;;;;1568142;74;893;-68
2021/05/01 01:48:16;;;;;;;;;;;22.80;41.00;;;;;;1564430;74;3173;-66
2021/05/01 01:50:18;;;;;;;;;;;22.80;40.80;;;;;;1545801;75;1941;-66
2021/05/01 01:52:20;;;;;;;;;;;22.90;40.70;;;;;;1555873;75;814;-66
2021/05/01 01:54:22;;;;;;;;;;;22.90;40.60;;;;;;1545736;75;735;-66
2021/05/01 01:56:26;;;;;;;;;;;22.90;40.70;;;;;;1551484;75;753;-66
2021/05/01 01:58:28;;;;;;;;;;;23.00;40.80;;;;;;1541560;75;2015;-66
2021/05/01 02:00:30;;;;;;;;;;;22.90;40.70;;;;;;1551696;76;730;-66
2021/05/01 02:02:32;;;;;;;;;;;22.90;40.60;;;;;;1543929;76;825;-67
2021/05/01 02:04:34;;;;;;;;;;;22.90;40.70;;;;;;1544381;76;742;-66
2021/05/01 02:06:36;;;;;;;;;;;22.90;40.80;;;;;;1541554;76;769;-67
2021/05/01 02:08:38;;;;;;;;;;;22.90;40.70;;;;;;1556235;76;1118;-66
2021/05/01 02:10:40;;;;;;;;;;;22.90;40.70;;;;;;1543283;76;1925;-66
2021/05/01 02:12:42;;;;;;;;;;;22.90;40.70;;;;;;1548024;76;755;-66
2021/05/01 02:14:44;;;;;;;;;;;22.90;40.50;;;;;;1546113;76;754;-67
2021/05/01 02:16:46;;;;;;;;;;;22.90;40.50;;;;;;1553034;76;801;-66
2021/05/01 02:18:48;;;;;;;;;;;22.90;40.60;;;;;;1545529;76;1144;-66
2021/05/01 02:20:49;;;;;;;;;;;22.90;40.60;;;;;;1541973;76;826;-67
2021/05/01 02:22:51;;;;;;;;;;;22.90;40.60;;;;;;1543143;76;829;-67
2021/05/01 02:24:53;;;;;;;;;;;22.90;40.60;;;;;;1536568;76;785;-66
2021/05/01 02:26:55;;;;;;;;;;;22.90;40.50;;;;;;1545539;76;728;-67
2021/05/01 02:28:57;;;;;;;;;;;22.90;40.50;;;;;;1541186;76;1106;-67
2021/05/01 02:30:59;;;;;;;;;;;22.90;40.50;;;;;;1547967;76;1943;-67
2021/05/01 02:33:01;;;;;;;;;;;22.90;40.50;;;;;;1549757;76;841;-66
2021/05/01 02:35:04;;;;;;;;;;;22.90;40.60;;;;;;1549185;76;768;-66
2021/05/01 02:37:06;;;;;;;;;;;22.80;40.70;;;;;;1548812;76;1126;-66
2021/05/01 02:39:08;;;;;;;;;;;22.70;41.00;;;;;;1549136;76;794;-66
2021/05/01 02:41:10;;;;;;;;;;;22.60;40.90;;;;;;1542551;76;922;-66
2021/05/01 02:43:12;;;;;;;;;;;22.60;41.30;;;;;;1548511;76;714;-67
2021/05/01 02:45:15;;;;;;;;;;;22.60;41.30;;;;;;1543228;76;751;-66
2021/05/01 02:47:17;;;;;;;;;;;22.60;41.30;;;;;;1551039;76;1104;-64
2021/05/01 02:49:19;;;;;;;;;;;22.60;41.20;;;;;;1540395;76;785;-65
2021/05/01 02:51:21;;;;;;;;;;;22.60;41.60;;;;;;1532292;75;1948;-65
2021/05/01 02:53:23;;;;;;;;;;;22.50;41.60;;;;;;1534321;75;728;-66
2021/05/01 02:55:25;;;;;;;;;;;22.50;42.00;;;;;;1534173;75;791;-66
2021/05/01 02:57:27;;;;;;;;;;;22.50;42.10;;;;;;1542884;75;1168;-66
2021/05/01 02:59:28;;;;;;;;;;;22.40;42.30;;;;;;1541980;75;809;-67
2021/05/01 03:01:30;;;;;;;;;;;22.40;42.20;;;;;;1539598;76;822;-66
2021/05/01 03:03:32;;;;;;;;;;;22.40;42.30;;;;;;1531113;75;823;-66
2021/05/01 03:05:34;;;;;;;;;;;22.30;41.90;;;;;;1552291;75;759;-65
2021/05/01 03:07:36;;;;;;;;;;;22.50;41.90;;;;;;1548432;75;1125;-65
2021/05/01 03:09:38;;;;;;;;;;;22.50;41.60;;;;;;1540527;75;746;-63
2021/05/01 03:11:40;;;;;;;;;;;22.50;41.50;;;;;;1543208;75;1943;-64
2021/05/01 03:13:41;;;;;;;;;;;22.50;41.60;;;;;;1545419;75;759;-66
2021/05/01 03:15:43;;;;;;;;;;;22.50;41.30;;;;;;1550263;75;715;-66
2021/05/01 03:17:45;;;;;;;;;;;22.50;41.50;;;;;;1540872;75;1166;-66
2021/05/01 03:19:47;;;;;;;;;;;22.60;41.60;;;;;;1540229;75;827;-66
2021/05/01 03:21:49;;;;;;;;;;;22.50;41.50;;;;;;1537783;75;740;-63
2021/05/01 03:23:52;;;;;;;;;;;22.50;41.50;;;;;;1533563;75;772;-65
2021/05/01 03:25:54;;;;;;;;;;;22.50;41.50;;;;;;1534711;75;1050;-65
2021/05/01 03:27:56;;;;;;;;;;;22.50;41.40;;;;;;1538815;75;1112;-66
2021/05/01 03:29:58;;;;;;;;;;;22.40;41.30;;;;;;1533768;75;842;-65
2021/05/01 03:32:00;;;;;;;;;;;22.50;41.30;;;;;;1540538;75;1944;-66
2021/05/01 03:34:02;;;;;;;;;;;22.50;41.60;;;;;;1528412;75;745;-67
2021/05/01 03:36:04;;;;;;;;;;;22.50;41.40;;;;;;1554065;75;772;-66
2021/05/01 03:38:06;;;;;;;;;;;22.50;41.40;;;;;;1533031;75;1151;-65
2021/05/01 03:40:09;;;;;;;;;;;22.40;41.30;;;;;;1540821;75;1014;-67
2021/05/01 03:42:10;;;;;;;;;;;22.40;41.30;;;;;;1550862;75;753;-66
2021/05/01 03:44:12;;;;;;;;;;;22.50;41.40;;;;;;1534846;75;675;-67
2021/05/01 03:46:14;;;;;;;;;;;22.50;41.40;;;;;;1533755;75;873;-66
2021/05/01 03:48:16;;;;;;;;;;;22.50;41.40;;;;;;1539864;75;1115;-65
2021/05/01 03:50:18;;;;;;;;;;;22.50;41.30;;;;;;1542629;75;766;-67
2021/05/01 03:52:20;;;;;;;;;;;22.50;41.30;;;;;;1555582;75;1947;-66
2021/05/01 03:54:22;;;;;;;;;;;22.70;41.30;;;;;;1540583;75;780;-66
2021/05/01 03:56:24;;;;;;;;;;;22.60;41.10;;;;;;1554398;75;792;-66
2021/05/01 03:58:26;;;;;;;;;;;22.60;40.90;;;;;;1547218;75;1153;-65
2021/05/01 04:00:27;;;;;;;;;;;22.60;40.80;;;;;;1531218;75;791;-67
2021/05/01 04:02:29;;;;;;;;;;;22.60;40.90;;;;;;1541307;75;804;-66
2021/05/01 04:04:31;;;;;;;;;;;22.60;40.70;;;;;;1537872;75;795;-66
2021/05/01 04:06:33;;;;;;;;;;;22.60;40.60;;;;;;1546475;75;734;-65
2021/05/01 04:08:37;;;;;;;;;;;22.50;40.90;;;;;;1547737;75;1142;-66
2021/05/01 04:10:39;;;;;;;;;;;22.50;40.80;;;;;;1532003;76;1622;-65
2021/05/01 04:12:40;;;;;;;;;;;22.40;41.00;;;;;;1559379;75;1946;-66
2021/05/01 04:14:42;;;;;;;;;;;22.50;41.10;;;;;;1556284;75;789;-67
2021/05/01 04:16:44;;;;;;;;;;;22.50;41.00;;;;;;1553822;75;782;-66
2021/05/01 04:18:47;;;;;;;;;;;22.50;40.90;;;;;;1552359;75;1153;-66
2021/05/01 04:20:49;;;;;;;;;;;22.60;40.90;;;;;;1550742;75;834;-66
2021/05/01 04:22:51;;;;;;;;;;;22.50;40.80;;;;;;1553981;75;782;-66
2021/05/01 04:24:53;;;;;;;;;;;22.50;41.00;;;;;;1555173;75;777;-64
2021/05/01 04:26:54;;;;;;;;;;;22.50;41.00;;;;;;1554619;75;948;-65
2021/05/01 04:28:57;;;;;;;;;;;22.50;41.00;;;;;;1550914;75;1098;-66
2021/05/01 04:30:59;;;;;;;;;;;22.50;40.80;;;;;;1553156;75;752;-66
2021/05/01 04:33:00;;;;;;;;;;;22.50;40.80;;;;;;1548386;75;1923;-65
2021/05/01 04:35:03;;;;;;;;;;;22.50;40.90;;;;;;1549310;75;779;-66
2021/05/01 04:37:05;;;;;;;;;;;22.60;40.70;;;;;;1545803;75;812;-66
2021/05/01 04:39:07;;;;;;;;;;;22.50;40.70;;;;;;1547681;75;790;-66
2021/05/01 04:41:09;;;;;;;;;;;22.60;40.80;;;;;;1548546;75;714;-66
2021/05/01 04:43:12;;;;;;;;;;;22.50;41.00;;;;;;1550439;75;830;-65
2021/05/01 04:45:15;;;;;;;;;;;22.50;41.10;;;;;;1551727;75;676;-66
2021/05/01 04:47:17;;;;;;;;;;;22.50;41.00;;;;;;1543724;75;1140;-67
2021/05/01 04:49:18;;;;;;;;;;;22.50;41.10;;;;;;1545631;75;757;-67
2021/05/01 04:51:20;;;;;;;;;;;22.50;41.10;;;;;;1549900;75;758;-67
2021/05/01 04:53:22;;;;;;;;;;;22.50;41.10;;;;;;1551423;75;1942;-65
2021/05/01 04:55:25;;;;;;;;;;;22.50;41.10;;;;;;1544617;75;847;-65
2021/05/01 04:57:27;;;;;;;;;;;22.50;41.10;;;;;;1548500;75;1144;-66
2021/05/01 04:59:29;;;;;;;;;;;22.50;41.10;;;;;;1560095;75;786;-66
2021/05/01 05:01:31;;;;;;;;;;;22.60;41.00;;;;;;1555150;75;813;-66
2021/05/01 05:03:33;;;;;;;;;;;22.60;41.00;;;;;;1541033;75;788;-63
2021/05/01 05:05:35;;;;;;;;;;;22.60;41.00;;;;;;1550986;75;761;-65
2021/05/01 05:07:37;;;;;;;;;;;22.60;41.00;;;;;;1543262;75;1142;-65
2021/05/01 05:09:39;;;;;;;;;;;22.60;41.00;;;;;;1549810;75;1122;-65
2021/05/01 05:11:41;;;;;;;;;;;22.60;41.00;;;;;;1553122;75;1950;-65
2021/05/01 05:13:42;;;;;;;;;;;22.60;40.90;;;;;;1551097;75;856;-66
2021/05/01 05:15:44;;;;;;;;;;;22.80;41.00;;;;;;1544436;75;786;-65
2021/05/01 05:17:46;;;;;;;;;;;22.80;40.90;;;;;;1533754;75;1174;-66
2021/05/01 05:19:48;;;;;;;;;;;22.60;41.00;;;;;;1544879;75;729;-67
2021/05/01 05:21:50;;;;;;;;;;;22.70;41.00;;;;;;1545402;75;728;-66
2021/05/01 05:23:52;;;;;;;;;;;22.70;41.10;;;;;;1542808;75;811;-66
2021/05/01 05:25:54;;;;;;;;;;;22.70;41.00;;;;;;1548600;75;919;-63
2021/05/01 05:27:55;;;;;;;;;;;22.80;40.90;;;;;;1541764;75;1118;-67
2021/05/01 05:29:57;;;;;;;;;;;22.70;40.70;;;;;;1543947;75;747;-66
2021/05/01 05:31:59;;;;;;;;;;;22.60;41.00;;;;;;1550738;75;1935;-66
2021/05/01 05:34:01;;;;;;;;;;;22.70;40.90;;;;;;1544240;75;789;-66
2021/05/01 05:36:03;;;;;;;;;;;22.80;40.80;;;;;;1550044;75;828;-67
2021/05/01 05:38:05;;;;;;;;;;;22.70;40.70;;;;;;1544069;75;1121;-66
2021/05/01 05:40:07;;;;;;;;;;;22.70;40.70;;;;;;1547715;75;752;-66
2021/05/01 05:42:10;;;;;;;;;;;22.80;40.70;;;;;;1548218;75;736;-66
2021/05/01 05:44:12;;;;;;;;;;;22.80;40.70;;;;;;1541755;75;1133;-67
2021/05/01 05:46:15;;;;;;;;;;;22.80;41.20;;;;;;1540034;75;759;-66
2021/05/01 05:48:17;;;;;;;;;;;22.70;41.00;;;;;;1545008;75;1133;-66
2021/05/01 05:50:19;;;;;;;;;;;22.60;40.70;;;;;;1547026;75;745;-66
2021/05/01 05:52:21;;;;;;;;;;;22.70;40.50;;;;;;1542175;75;1941;-66
2021/05/01 05:54:23;;;;;;;;;;;22.70;40.60;;;;;;1552060;75;753;-66
2021/05/01 05:56:25;;;;;;;;;;;22.80;40.40;;;;;;1549618;75;889;-63
2021/05/01 05:58:27;;;;;;;;;;;22.80;40.50;;;;;;1555201;75;1153;-66
2021/05/01 06:00:29;;;;;;;;;;;22.80;40.30;;;;;;1544726;75;670;-66
2021/05/01 06:02:31;;;;;;;;;;;22.80;40.50;;;;;;1548030;75;780;-67
2021/05/01 06:04:46;;;;;;;;;;;22.80;40.50;;;;;;1549055;75;738;-65
2021/05/01 06:06:53;;;;;;;;;;;22.80;40.50;;;;;;1543510;75;797;-66
2021/05/01 06:08:54;;;;;;;;;;;22.70;40.50;;;;;;1529391;75;1522;-66
2021/05/01 06:10:57;;;;;;;;;;;22.70;40.50;;;;;;1544149;75;720;-64
2021/05/01 06:13:00;;;;;;;;;;;22.70;40.50;;;;;;1545132;75;1915;-66
2021/05/01 06:15:03;;;;;;;;;;;22.70;40.40;;;;;;1543837;75;730;-66
2021/05/01 06:17:05;;;;;;;;;;;22.70;40.50;;;;;;1541268;75;808;-66
2021/05/01 06:19:09;;;;;;;;;;;22.70;40.50;;;;;;1548480;75;801;-66
2021/05/01 06:21:11;;;;;;;;;;;22.60;40.40;;;;;;1554018;75;909;-66
2021/05/01 06:23:13;;;;;;;;;;;22.70;40.50;;;;;;1520687;76;705;-66
2021/05/01 06:25:15;;;;;;;;;;;22.70;40.50;;;;;;1548543;75;825;-64
2021/05/01 06:27:17;;;;;;;;;;;22.70;40.60;;;;;;1558064;75;1093;-66
2021/05/01 06:29:19;;;;;;;;;;;22.70;40.70;;;;;;1558964;75;730;-66
2021/05/01 06:31:22;;;;;;;;;;;22.70;40.60;;;;;;1525166;76;757;-65
2021/05/01 06:33:24;;;;;;;;;;;22.60;40.50;;;;;;1552326;75;1917;-67
2021/05/01 06:35:26;;;;;;;;;;;22.60;40.50;;;;;;1527991;76;786;-67
2021/05/01 06:37:28;;;;;;;;;;;22.70;40.70;;;;;;1537859;76;1139;-66
2021/05/01 06:39:33;;;;;;;;;;;22.70;41.00;;;;;;1535169;76;900;-64
2021/05/01 06:41:53;;;;;;;;;;;22.60;41.80;;;;;;1532055;76;1678;-67
2021/05/01 06:44:09;;;;;;;;;;;22.50;41.50;;;;;;1536979;76;1733;-65
2021/05/01 06:46:02;;;;;;;;;;;22.50;41.30;;;;;;1535850;76;1591;-65
2021/05/01 06:48:05;;;;;;;;;;;22.60;41.30;;;;;;1540392;76;1162;-65
2021/05/01 06:50:10;;;;;;;;;;;22.60;41.10;;;;;;1532878;76;782;-65
2021/05/01 06:52:12;;;;;;;;;;;22.50;41.00;;;;;;1540766;76;1944;-66
2021/05/01 06:54:14;;;;;;;;;;;22.60;41.10;;;;;;1535671;76;756;-65
2021/05/01 06:56:16;;;;;;;;;;;22.60;41.30;;;;;;1536649;76;752;-66
2021/05/01 06:58:18;;;;;;;;;;;22.60;41.20;;;;;;1536077;76;1141;-62
2021/05/01 07:00:20;;;;;;;;;;;22.60;41.20;;;;;;1512147;77;840;-61
2021/05/01 07:02:24;;;;;;;;;;;22.60;39.80;;;;;;1530251;76;817;-62
2021/05/01 07:04:26;;;;;;;;;;;22.50;39.20;;;;;;1532177;76;805;-61
2021/05/01 07:06:27;;;;;;;;;;;22.50;39.10;;;;;;1535591;76;781;-61
2021/05/01 07:08:29;;;;;;;;;;;22.40;38.90;;;;;;1534499;76;1135;-61
2021/05/01 07:10:31;;;;;;;;;;;22.40;38.90;;;;;;1537131;76;768;-62
2021/05/01 07:12:33;;;;;;;;;;;22.40;38.90;;;;;;1536644;76;1931;-62
2021/05/01 07:14:35;;;;;;;;;;;22.40;38.90;;;;;;1535822;76;798;-62
2021/05/01 07:16:37;;;;;;;;;;;22.30;38.90;;;;;;1535991;76;835;-59
2021/05/01 07:18:39;;;;;;;;;;;22.30;38.90;;;;;;1535973;76;1173;-62
2021/05/01 07:20:41;;;;;;;;;;;22.20;38.90;;;;;;1543210;76;803;-61
2021/05/01 07:22:43;;;;;;;;;;;22.20;38.80;;;;;;1556389;75;822;-62
2021/05/01 07:24:45;;;;;;;;;;;22.20;38.80;;;;;;1556546;75;797;-61
2021/05/01 07:26:47;;;;;;;;;;;22.10;38.80;;;;;;1529655;76;738;-62
2021/05/01 07:28:50;;;;;;;;;;;22.10;38.80;;;;;;1541207;76;1123;-61
2021/05/01 07:30:55;;;;;;;;;;;22.10;38.90;;;;;;1530962;76;911;-61
2021/05/01 07:32:59;;;;;;;;;;;22.10;39.10;;;;;;1525389;76;1933;-61
2021/05/01 07:35:02;;;;;;;;;;;22.20;38.90;;;;;;1544973;76;1975;-60
2021/05/01 07:37:06;;;;;;;;;;;22.10;38.90;;;;;;1546814;76;786;-61
2021/05/01 07:39:11;;;;;;;;;;;22.00;39.00;;;;;;1548708;76;705;-59
2021/05/01 07:41:13;;;;;;;;;;;22.00;38.90;;;;;;1524553;76;766;-61
2021/05/01 07:43:15;;;;;;;;;;;22.00;39.10;;;;;;1547669;76;760;-60
2021/05/01 07:45:24;;;;;;;;;;;22.00;38.90;;;;;;1532230;76;808;-62
2021/05/01 07:47:45;;;;;;;;;;;22.00;38.70;;;;;;1535869;76;1146;-62
2021/05/01 07:49:47;;;;;;;;;;;22.00;38.70;;;;;;1527347;75;1253;-53
2021/05/01 07:51:49;;;;;;;;;;;22.00;38.40;;;;;;1538877;75;725;-52
2021/05/01 07:53:51;;;;;;;;;;;22.00;38.60;;;;;;1523325;76;1930;-57
2021/05/01 07:55:53;;;;;;;;;;;21.90;38.70;;;;;;1521665;75;697;-51
2021/05/01 07:57:55;;;;;;;;;;;21.80;38.90;;;;;;1521674;76;805;-56
2021/05/01 07:59:57;;;;;;;;;;;21.80;39.30;;;;;;1525754;75;1139;-56
2021/05/01 08:01:59;;;;;;;;;;;21.80;39.40;;;;;;1517070;76;743;-56
2021/05/01 08:04:01;;;;;;;;;;;21.80;39.40;;;;;;1521763;76;697;-56
2021/05/01 08:06:02;;;;;;;;;;;21.80;39.90;;;;;;1524630;76;760;-55
2021/05/01 08:08:05;;;;;;;;;;;21.80;39.80;;;;;;1522852;75;771;-56
2021/05/01 08:10:07;;;;;;;;;;;21.80;40.50;;;;;;1522268;76;1151;-56
2021/05/01 08:12:09;;;;;;;;;;;21.80;40.80;;;;;;1524387;76;778;-53
2021/05/01 08:14:11;;;;;;;;;;;21.90;40.50;;;;;;1552992;75;1909;-56
2021/05/01 08:16:14;;;;;;;;;;;21.90;40.50;;;;;;1546695;75;756;-53
2021/05/01 08:18:16;;;;;;;;;;;21.90;40.50;;;;;;1554739;74;773;-56
2021/05/01 08:20:17;;;;;;;;;;;21.90;40.60;;;;;;1562246;74;1157;-54
2021/05/01 08:22:19;;;;;;;;;;;21.90;40.40;;;;;;1556069;74;763;-54
2021/05/01 08:24:21;;;;;;;;;;;21.90;40.20;;;;;;1549380;74;753;-54
2021/05/01 08:26:23;;;;;;;;;;;21.80;40.10;;;;;;1565463;74;749;-53
2021/05/01 08:28:25;;;;;;;;;;;21.80;40.00;;;;;;1542698;75;805;-55
2021/05/01 08:30:27;;;;;;;;;;;21.80;40.00;;;;;;1528045;76;1125;-55
2021/05/01 08:32:29;;;;;;;;;;;21.80;40.00;;;;;;1540013;75;709;-55
2021/05/01 08:34:31;;;;;;;;;;;21.80;39.70;;;;;;1521277;76;1946;-55
2021/05/01 08:36:33;;;;;;;;;;;21.80;39.70;;;;;;1528656;75;684;-54
2021/05/01 08:38:40;;;;;;;;;;;21.80;39.70;;;;;;1518009;75;669;-54
2021/05/01 08:40:39;;;;;;;;;;;21.70;39.40;;;;;;1517064;76;1666;-56
2021/05/01 08:42:45;;;;;;;;;;;21.90;39.50;;;;;;1516513;76;777;-56
2021/05/01 08:44:46;;;;;;;;;;;21.90;39.40;;;;;;1522403;76;777;-56
2021/05/01 08:46:48;;;;;;;;;;;21.90;39.40;;;;;;1524082;76;822;-51
2021/05/01 08:48:51;;;;;;;;;;;21.80;39.40;;;;;;1523900;75;820;-52
2021/05/01 08:50:58;;;;;;;;;;;21.80;39.40;;;;;;1523691;75;1118;-55
2021/05/01 08:53:02;;;;;;;;;;;21.80;39.60;;;;;;1528687;75;1936;-56
2021/05/01 08:55:04;;;;;;;;;;;21.80;39.30;;;;;;1528585;75;895;-54
2021/05/01 08:57:07;;;;;;;;;;;21.70;39.40;;;;;;1512200;76;772;-55
2021/05/01 08:59:09;;;;;;;;;;;21.70;39.30;;;;;;1550830;75;2188;-55
2021/05/01 09:01:13;;;;;;;;;;;21.70;39.30;;;;;;1532377;76;720;-52
2021/05/01 09:03:18;;;;;;;;;;;21.80;39.20;;;;;;1525072;76;716;-55
2021/05/01 09:05:19;;;;;;;;;;;21.80;39.30;;;;;;1537544;75;1659;-55
2021/05/01 09:07:20;;;;;;;;;;;21.80;39.20;;;;;;1509501;76;758;-55
2021/05/01 09:09:24;;;;;;;;;;;21.80;39.30;;;;;;1555163;75;1098;-55
2021/05/01 09:11:36;;;;;;;;;;;21.70;39.30;;;;;;1529021;76;1760;-55
2021/05/01 09:13:42;;;;;;;;;;;21.80;39.40;;;;;;1523243;76;1928;-53
2021/05/01 09:15:46;;;;;;;;;;;21.80;40.00;;;;;;1540535;74;1130;-55
2021/05/01 09:17:48;;;;;;;;;;;21.80;41.00;;;;;;1536619;75;1325;-58
2021/05/01 09:19:50;;;;;;;;;;;21.70;41.30;;;;;;1534723;75;1126;-57
2021/05/01 09:21:53;;;;;;;;;;;21.70;42.00;;;;;;1538060;75;782;-56
2021/05/01 09:23:55;;;;;;;;;;;21.70;41.20;;;;;;1507358;76;1948;-56
2021/05/01 09:25:58;;;;;;;;;;;21.70;41.00;;;;;;1554684;75;838;-57
2021/05/01 09:28:00;;;;;;;;;;;21.70;41.50;;;;;;1533544;76;719;-57
2021/05/01 09:30:12;;;;;;;;;;;21.70;41.20;;;;;;1517875;76;1215;-56
2021/05/01 09:32:20;;;;;;;;;;;21.80;40.70;;;;;;1557294;74;727;-58
2021/05/01 09:34:24;;;;;;;;;;;21.80;41.00;;;;;;1539005;74;1933;-56
2021/05/01 09:36:26;;;;;;;;;;;21.70;40.80;;;;;;1538608;74;2385;-56
2021/05/01 09:38:31;;;;;;;;;;;21.70;41.30;;;;;;1549010;74;875;-57
2021/05/01 09:40:33;;;;;;;;;;;21.70;41.00;;;;;;1516895;76;1148;-56
2021/05/01 09:42:36;;;;;;;;;;;21.70;40.60;;;;;;1539297;75;740;-56
2021/05/01 09:44:37;;;;;;;;;;;21.60;41.00;;;;;;1527617;76;727;-52
2021/05/01 09:46:45;;;;;;;;;;;21.60;41.30;;;;;;1517183;76;776;-56
2021/05/01 09:48:44;;;;;;;;;;;21.60;41.40;;;;;;1522047;76;1504;-55
2021/05/01 09:50:49;;;;;;;;;;;21.70;41.00;;;;;;1540628;76;1132;-51
2021/05/01 09:53:01;;;;;;;;;;;21.60;40.60;;;;;;1537973;76;888;-56
2021/05/01 09:55:03;;;;;;;;;;;21.60;39.20;;;;;;1531469;76;1934;-56
2021/05/01 09:57:06;;;;;;;;;;;21.60;41.30;;;;;;1527440;75;872;-55
2021/05/01 09:59:08;;;;;;;;;;;21.60;42.00;;;;;;1519586;76;1134;-56
2021/05/01 10:01:14;;;;;;;;;;;21.50;41.00;;;;;;1535090;76;684;-56
2021/05/01 10:03:29;;;;;;;;;;;21.50;40.80;;;;;;1526626;75;680;-56
2021/05/01 10:05:31;;;;;;;;;;;21.60;40.80;;;;;;1522504;76;719;-54
2021/05/01 10:07:36;;;;;;;;;;;21.50;40.60;;;;;;1523245;75;740;-55
2021/05/01 10:09:38;;;;;;;;;;;21.50;41.50;;;;;;1524501;75;1180;-56
2021/05/01 10:11:40;;;;;;;;;;;21.50;40.60;;;;;;1522068;75;759;-56
2021/05/01 10:13:49;;;;;;;;;;;21.50;41.30;;;;;;1527662;76;1926;-56
2021/05/01 10:15:52;;;;;;;;;;;21.50;41.00;;;;;;1523811;75;843;-57
2021/05/01 10:17:54;;;;;;;;;;;21.50;40.80;;;;;;1524490;76;746;-56
2021/05/01 10:20:02;;;;;;;;;;;21.50;40.70;;;;;;1530324;76;1164;-56
2021/05/01 10:22:05;;;;;;;;;;;21.40;40.50;;;;;;1526459;76;872;-56
2021/05/01 10:24:08;;;;;;;;;;;21.40;40.60;;;;;;1527244;75;1684;-57
2021/05/01 10:26:13;;;;;;;;;;;21.50;40.50;;;;;;1529018;76;704;-56
2021/05/01 10:28:20;;;;;;;;;;;21.50;40.50;;;;;;1523525;76;749;-56
2021/05/01 10:30:37;;;;;;;;;;;21.50;40.30;;;;;;1523682;76;1596;-57
2021/05/01 10:32:42;;;;;;;;;;;21.40;40.70;;;;;;1517143;76;704;-57
2021/05/01 10:34:44;;;;;;;;;;;21.40;40.60;;;;;;1530182;76;1930;-57
2021/05/01 10:36:46;;;;;;;;;;;21.40;40.70;;;;;;1530035;75;829;-57
2021/05/01 10:38:59;;;;;;;;;;;21.40;40.40;;;;;;1528248;75;876;-56
2021/05/01 10:41:01;;;;;;;;;;;21.40;40.40;;;;;;1530304;75;1815;-56
2021/05/01 10:43:07;;;;;;;;;;;21.40;40.20;;;;;;1525631;76;706;-57
2021/05/01 10:45:09;;;;;;;;;;;21.40;40.20;;;;;;1532383;76;757;-57
2021/05/01 10:47:13;;;;;;;;;;;21.40;40.50;;;;;;1521684;76;725;-56
2021/05/01 10:49:15;;;;;;;;;;;21.30;40.70;;;;;;1526936;76;1771;-57
2021/05/01 10:51:19;;;;;;;;;;;21.40;40.70;;;;;;1533183;76;815;-56
2021/05/01 10:53:21;;;;;;;;;;;21.40;40.20;;;;;;1527108;76;1116;-56
2021/05/01 10:55:24;;;;;;;;;;;21.40;40.00;;;;;;1518944;75;1893;-57
2021/05/01 10:57:26;;;;;;;;;;;21.40;40.00;;;;;;1522619;75;759;-56
2021/05/01 10:59:30;;;;;;;;;;;21.40;40.00;;;;;;1525154;76;1141;-56
2021/05/01 11:01:33;;;;;;;;;;;21.40;40.00;;;;;;1538973;76;1673;-57
2021/05/01 11:03:37;;;;;;;;;;;21.40;40.00;;;;;;1530660;75;698;-57
2021/05/01 11:05:40;;;;;;;;;;;21.40;40.40;;;;;;1530599;76;1795;-56
2021/05/01 11:07:43;;;;;;;;;;;21.40;40.20;;;;;;1524937;76;765;-56
2021/05/01 11:09:45;;;;;;;;;;;21.30;40.50;;;;;;1522169;76;1150;-56
2021/05/01 11:11:47;;;;;;;;;;;21.50;40.40;;;;;;1523173;76;705;-57
2021/05/01 11:13:50;;;;;;;;;;;21.40;40.20;;;;;;1529233;76;1944;-57
2021/05/01 11:15:52;;;;;;;;;;;21.40;40.20;;;;;;1524700;75;671;-56
2021/05/01 11:18:07;;;;;;;;;;;21.40;39.80;;;;;;1536164;76;738;-56
2021/05/01 11:20:10;;;;;;;;;;;21.40;39.70;;;;;;1525967;75;1210;-56
2021/05/01 11:22:13;;;;;;;;;;;21.40;40.50;;;;;;1524175;76;693;-56
2021/05/01 11:24:15;;;;;;;;;;;21.40;40.20;;;;;;1526369;76;1635;-56
2021/05/01 11:26:17;;;;;;;;;;;21.40;39.90;;;;;;1518673;76;780;-58
2021/05/01 11:28:19;;;;;;;;;;;21.30;40.60;;;;;;1523686;75;743;-56
2021/05/01 11:30:23;;;;;;;;;;;21.40;40.00;;;;;;1521024;76;1139;-57
2021/05/01 11:32:25;;;;;;;;;;;21.40;40.20;;;;;;1523791;75;698;-56
2021/05/01 11:34:27;;;;;;;;;;;21.30;40.20;;;;;;1521866;76;1942;-56
2021/05/01 11:36:29;;;;;;;;;;;21.40;39.80;;;;;;1525620;75;725;-56
2021/05/01 11:38:35;;;;;;;;;;;21.40;39.80;;;;;;1535801;76;770;-56
2021/05/01 11:40:38;;;;;;;;;;;21.50;39.80;;;;;;1519042;76;1075;-56
2021/05/01 11:42:40;;;;;;;;;;;21.50;39.60;;;;;;1531104;75;821;-56
2021/05/01 11:44:42;;;;;;;;;;;21.60;39.50;;;;;;1531589;76;1206;-57
2021/05/01 11:46:46;;;;;;;;;;;21.50;40.00;;;;;;1531344;75;748;-56
2021/05/01 11:48:50;;;;;;;;;;;21.40;40.20;;;;;;1536474;76;757;-56
2021/05/01 11:50:51;;;;;;;;;;;21.40;39.70;;;;;;1524962;76;1784;-56
2021/05/01 11:53:09;;;;;;;;;;;21.40;39.70;;;;;;1536886;76;708;-56
2021/05/01 11:55:24;;;;;;;;;;;21.40;39.80;;;;;;1516844;76;1959;-57
2021/05/01 11:57:43;;;;;;;;;;;21.40;40.10;;;;;;1528771;75;1814;-57
2021/05/01 11:59:45;;;;;;;;;;;21.40;39.60;;;;;;1535300;76;1144;-57
2021/05/01 12:02:00;;;;;;;;;;;21.40;39.50;;;;;;1519684;76;724;-57
2021/05/01 12:04:03;;;;;;;;;;;21.40;39.40;;;;;;1531564;76;795;-56
2021/05/01 12:06:07;;;;;;;;;;;21.40;39.70;;;;;;1527726;75;817;-56
2021/05/01 12:08:10;;;;;;;;;;;21.40;39.80;;;;;;1532123;76;789;-56
2021/05/01 12:10:13;;;;;;;;;;;21.40;39.50;;;;;;1530574;76;1133;-57
2021/05/01 12:12:15;;;;;;;;;;;21.40;39.50;;;;;;1522723;76;766;-56